sensor_id;sensor_type;location;lat;lon;timestamp;temperature;humidity
7014;DHT22;3547;50.774;12.918;2023-09-19T00:00:16;15.80;1.00
7014;DHT22;3547;50.774;12.918;2023-09-19T00:02:46;15.70;1.00
7014;DHT22;3547;50.774;12.918;2023-09-19T00:05:17;15.80;1.00
7014;DHT22;3547;50.774;12.918;2023-09-19T00:07:43;15.80;1.00
7014;DHT22;3547;50.774;12.918;2023-09-19T00:10:10;15.80;1.00
7014;DHT22;3547;50.774;12.918;2023-09-19T00:12:37;15.80;1.00
7014;DHT22;3547;50.774;12.918;2023-09-19T00:15:03;15.80;1.00
7014;DHT22;3547;50.774;12.918;2023-09-19T00:17:30;15.80;1.00
7014;DHT22;3547;50.774;12.918;2023-09-19T00:19:57;15.80;1.00
7014;DHT22;3547;50.774;12.918;2023-09-19T00:22:24;15.90;1.00
7014;DHT22;3547;50.774;12.918;2023-09-19T00:24:52;15.90;1.00
7014;DHT22;3547;50.774;12.918;2023-09-19T00:27:19;16.00;1.00
7014;DHT22;3547;50.774;12.918;2023-09-19T00:29:45;16.00;1.00
7014;DHT22;3547;50.774;12.918;2023-09-19T00:32:11;16.10;1.00
7014;DHT22;3547;50.774;12.918;2023-09-19T00:34:37;16.10;1.00
7014;DHT22;3547;50.774;12.918;2023-09-19T00:37:03;16.10;1.00
7014;DHT22;3547;50.774;12.918;2023-09-19T00:39:29;16.20;1.00
7014;DHT22;3547;50.774;12.918;2023-09-19T00:41:57;16.20;1.00
7014;DHT22;3547;50.774;12.918;2023-09-19T00:44:24;16.20;1.00
7014;DHT22;3547;50.774;12.918;2023-09-19T00:46:50;16.20;1.00
7014;DHT22;3547;50.774;12.918;2023-09-19T00:49:17;16.20;1.00
7014;DHT22;3547;50.774;12.918;2023-09-19T00:51:46;16.30;1.00
7014;DHT22;3547;50.774;12.918;2023-09-19T00:54:13;16.30;1.00
7014;DHT22;3547;50.774;12.918;2023-09-19T00:56:45;16.40;1.00
7014;DHT22;3547;50.774;12.918;2023-09-19T00:59:11;16.40;1.00
7014;DHT22;3547;50.774;12.918;2023-09-19T01:01:39;16.40;1.00
7014;DHT22;3547;50.774;12.918;2023-09-19T01:04:06;16.40;1.00
7014;DHT22;3547;50.774;12.918;2023-09-19T01:06:32;16.30;1.00
7014;DHT22;3547;50.774;12.918;2023-09-19T01:08:58;16.30;1.00
7014;DHT22;3547;50.774;12.918;2023-09-19T01:11:35;16.30;1.00
7014;DHT22;3547;50.774;12.918;2023-09-19T01:14:13;16.30;1.00
7014;DHT22;3547;50.774;12.918;2023-09-19T01:30:57;16.40;1.00
7014;DHT22;3547;50.774;12.918;2023-09-19T01:33:25;16.40;1.00
7014;DHT22;3547;50.774;12.918;2023-09-19T01:35:52;16.30;1.00
7014;DHT22;3547;50.774;12.918;2023-09-19T01:38:24;16.40;1.00
7014;DHT22;3547;50.774;12.918;2023-09-19T01:41:05;16.40;1.00
7014;DHT22;3547;50.774;12.918;2023-09-19T01:43:38;16.40;1.00
7014;DHT22;3547;50.774;12.918;2023-09-19T01:46:14;16.40;1.00
7014;DHT22;3547;50.774;12.918;2023-09-19T01:48:49;16.40;1.00
7014;DHT22;3547;50.774;12.918;2023-09-19T01:51:22;16.40;1.00
7014;DHT22;3547;50.774;12.918;2023-09-19T01:53:56;16.40;1.00
7014;DHT22;3547;50.774;12.918;2023-09-19T01:56:40;16.40;1.00
7014;DHT22;3547;50.774;12.918;2023-09-19T01:59:24;16.30;1.00
7014;DHT22;3547;50.774;12.918;2023-09-19T02:01:54;16.30;1.00
7014;DHT22;3547;50.774;12.918;2023-09-19T02:04:21;16.30;1.00
7014;DHT22;3547;50.774;12.918;2023-09-19T02:06:47;16.30;1.00
7014;DHT22;3547;50.774;12.918;2023-09-19T02:09:14;16.30;1.00
7014;DHT22;3547;50.774;12.918;2023-09-19T02:11:41;16.30;1.00
7014;DHT22;3547;50.774;12.918;2023-09-19T02:14:08;16.30;1.00
7014;DHT22;3547;50.774;12.918;2023-09-19T02:16:34;16.30;1.00
7014;DHT22;3547;50.774;12.918;2023-09-19T02:25:55;16.40;1.00
7014;DHT22;3547;50.774;12.918;2023-09-19T02:28:24;16.30;1.00
7014;DHT22;3547;50.774;12.918;2023-09-19T02:30:50;16.30;1.00
7014;DHT22;3547;50.774;12.918;2023-09-19T02:33:16;16.30;1.00
7014;DHT22;3547;50.774;12.918;2023-09-19T02:35:45;16.30;1.00
7014;DHT22;3547;50.774;12.918;2023-09-19T02:38:12;16.30;1.00
7014;DHT22;3547;50.774;12.918;2023-09-19T02:40:38;16.30;1.00
7014;DHT22;3547;50.774;12.918;2023-09-19T02:43:05;16.20;1.00
7014;DHT22;3547;50.774;12.918;2023-09-19T02:45:31;16.10;1.00
7014;DHT22;3547;50.774;12.918;2023-09-19T02:47:58;16.20;1.00
7014;DHT22;3547;50.774;12.918;2023-09-19T02:50:24;16.20;1.00
7014;DHT22;3547;50.774;12.918;2023-09-19T02:52:50;16.10;1.00
7014;DHT22;3547;50.774;12.918;2023-09-19T02:55:18;16.00;1.00
7014;DHT22;3547;50.774;12.918;2023-09-19T02:57:50;16.10;1.00
7014;DHT22;3547;50.774;12.918;2023-09-19T03:00:18;16.10;1.00
7014;DHT22;3547;50.774;12.918;2023-09-19T03:02:52;16.10;1.00
7014;DHT22;3547;50.774;12.918;2023-09-19T03:05:19;16.10;1.00
7014;DHT22;3547;50.774;12.918;2023-09-19T03:07:47;16.10;1.00
7014;DHT22;3547;50.774;12.918;2023-09-19T03:10:17;16.10;1.00
7014;DHT22;3547;50.774;12.918;2023-09-19T03:12:44;16.10;1.00
7014;DHT22;3547;50.774;12.918;2023-09-19T03:15:10;16.00;1.00
7014;DHT22;3547;50.774;12.918;2023-09-19T03:17:37;16.00;1.00
7014;DHT22;3547;50.774;12.918;2023-09-19T03:20:04;16.00;1.00
7014;DHT22;3547;50.774;12.918;2023-09-19T03:22:34;16.00;1.00
7014;DHT22;3547;50.774;12.918;2023-09-19T03:25:00;16.00;1.00
7014;DHT22;3547;50.774;12.918;2023-09-19T03:27:26;16.00;1.00
7014;DHT22;3547;50.774;12.918;2023-09-19T03:29:53;16.00;1.00
7014;DHT22;3547;50.774;12.918;2023-09-19T03:32:19;15.90;1.00
7014;DHT22;3547;50.774;12.918;2023-09-19T03:34:46;16.00;1.00
7014;DHT22;3547;50.774;12.918;2023-09-19T03:37:14;15.90;1.00
7014;DHT22;3547;50.774;12.918;2023-09-19T03:39:40;15.90;1.00
7014;DHT22;3547;50.774;12.918;2023-09-19T03:42:06;15.80;1.00
7014;DHT22;3547;50.774;12.918;2023-09-19T03:44:33;15.80;1.00
7014;DHT22;3547;50.774;12.918;2023-09-19T03:46:59;15.80;1.00
7014;DHT22;3547;50.774;12.918;2023-09-19T03:49:25;15.90;1.00
7014;DHT22;3547;50.774;12.918;2023-09-19T03:51:55;15.80;1.00
7014;DHT22;3547;50.774;12.918;2023-09-19T03:54:21;15.80;1.00
7014;DHT22;3547;50.774;12.918;2023-09-19T03:56:47;15.80;1.00
7014;DHT22;3547;50.774;12.918;2023-09-19T03:59:13;15.80;1.00
7014;DHT22;3547;50.774;12.918;2023-09-19T04:01:39;15.70;1.00
7014;DHT22;3547;50.774;12.918;2023-09-19T04:04:07;15.80;1.00
7014;DHT22;3547;50.774;12.918;2023-09-19T04:06:37;15.80;1.00
7014;DHT22;3547;50.774;12.918;2023-09-19T04:09:03;15.80;1.00
7014;DHT22;3547;50.774;12.918;2023-09-19T04:11:30;15.70;1.00
7014;DHT22;3547;50.774;12.918;2023-09-19T04:13:57;15.80;1.00
7014;DHT22;3547;50.774;12.918;2023-09-19T04:16:23;15.70;1.00
7014;DHT22;3547;50.774;12.918;2023-09-19T04:18:49;15.70;1.00
7014;DHT22;3547;50.774;12.918;2023-09-19T04:21:16;15.70;1.00
7014;DHT22;3547;50.774;12.918;2023-09-19T04:23:42;15.80;1.00
7014;DHT22;3547;50.774;12.918;2023-09-19T04:26:08;15.80;1.00
7014;DHT22;3547;50.774;12.918;2023-09-19T04:28:35;15.80;1.00
7014;DHT22;3547;50.774;12.918;2023-09-19T04:31:04;15.80;1.00
7014;DHT22;3547;50.774;12.918;2023-09-19T04:33:30;15.80;1.00
7014;DHT22;3547;50.774;12.918;2023-09-19T04:35:56;15.70;1.00
7014;DHT22;3547;50.774;12.918;2023-09-19T04:38:22;15.70;1.00
7014;DHT22;3547;50.774;12.918;2023-09-19T04:40:49;15.70;1.00
7014;DHT22;3547;50.774;12.918;2023-09-19T04:43:15;15.70;1.00
7014;DHT22;3547;50.774;12.918;2023-09-19T04:45:41;15.70;1.00
7014;DHT22;3547;50.774;12.918;2023-09-19T04:48:07;15.70;1.00
7014;DHT22;3547;50.774;12.918;2023-09-19T04:50:34;15.70;1.00
7014;DHT22;3547;50.774;12.918;2023-09-19T04:53:01;15.70;1.00
7014;DHT22;3547;50.774;12.918;2023-09-19T04:55:27;15.80;1.00
7014;DHT22;3547;50.774;12.918;2023-09-19T04:57:53;15.80;1.00
7014;DHT22;3547;50.774;12.918;2023-09-19T05:00:22;15.90;1.00
7014;DHT22;3547;50.774;12.918;2023-09-19T05:02:57;15.90;1.00
7014;DHT22;3547;50.774;12.918;2023-09-19T05:05:23;15.90;1.00
7014;DHT22;3547;50.774;12.918;2023-09-19T05:07:51;16.00;1.00
7014;DHT22;3547;50.774;12.918;2023-09-19T05:10:20;16.00;1.00
7014;DHT22;3547;50.774;12.918;2023-09-19T05:12:46;16.00;1.00
7014;DHT22;3547;50.774;12.918;2023-09-19T05:15:13;15.90;1.00
7014;DHT22;3547;50.774;12.918;2023-09-19T05:17:50;15.90;1.00
7014;DHT22;3547;50.774;12.918;2023-09-19T05:20:17;15.90;1.00
7014;DHT22;3547;50.774;12.918;2023-09-19T05:23:02;15.80;1.00
7014;DHT22;3547;50.774;12.918;2023-09-19T05:25:32;15.90;1.00
7014;DHT22;3547;50.774;12.918;2023-09-19T05:27:59;15.80;1.00
7014;DHT22;3547;50.774;12.918;2023-09-19T05:30:26;15.80;1.00
7014;DHT22;3547;50.774;12.918;2023-09-19T05:32:55;15.80;1.00
7014;DHT22;3547;50.774;12.918;2023-09-19T05:35:22;15.80;1.00
7014;DHT22;3547;50.774;12.918;2023-09-19T05:37:52;15.80;1.00
7014;DHT22;3547;50.774;12.918;2023-09-19T05:40:19;15.80;1.00
7014;DHT22;3547;50.774;12.918;2023-09-19T05:42:46;15.80;1.00
7014;DHT22;3547;50.774;12.918;2023-09-19T05:45:13;15.80;1.00
7014;DHT22;3547;50.774;12.918;2023-09-19T05:47:49;15.80;1.00
7014;DHT22;3547;50.774;12.918;2023-09-19T05:50:17;15.80;1.00
7014;DHT22;3547;50.774;12.918;2023-09-19T05:52:51;15.90;1.00
7014;DHT22;3547;50.774;12.918;2023-09-19T05:55:18;15.90;1.00
7014;DHT22;3547;50.774;12.918;2023-09-19T05:57:53;16.00;1.00
7014;DHT22;3547;50.774;12.918;2023-09-19T06:00:23;16.00;1.00
7014;DHT22;3547;50.774;12.918;2023-09-19T06:02:54;16.00;1.00
7014;DHT22;3547;50.774;12.918;2023-09-19T06:05:21;16.10;1.00
7014;DHT22;3547;50.774;12.918;2023-09-19T06:07:47;16.20;1.00
7014;DHT22;3547;50.774;12.918;2023-09-19T06:10:14;16.20;1.00
7014;DHT22;3547;50.774;12.918;2023-09-19T06:12:41;16.20;1.00
7014;DHT22;3547;50.774;12.918;2023-09-19T06:15:11;16.30;1.00
7014;DHT22;3547;50.774;12.918;2023-09-19T06:17:49;16.30;1.00
7014;DHT22;3547;50.774;12.918;2023-09-19T06:20:15;16.40;1.00
7014;DHT22;3547;50.774;12.918;2023-09-19T06:22:43;16.40;1.00
7014;DHT22;3547;50.774;12.918;2023-09-19T06:25:11;16.40;1.00
7014;DHT22;3547;50.774;12.918;2023-09-19T06:27:40;16.50;1.00
7014;DHT22;3547;50.774;12.918;2023-09-19T06:30:10;16.60;1.00
7014;DHT22;3547;50.774;12.918;2023-09-19T06:32:43;16.60;1.00
7014;DHT22;3547;50.774;12.918;2023-09-19T06:35:11;16.50;1.00
7014;DHT22;3547;50.774;12.918;2023-09-19T06:37:38;16.50;1.00
7014;DHT22;3547;50.774;12.918;2023-09-19T06:40:14;16.50;1.00
7014;DHT22;3547;50.774;12.918;2023-09-19T06:42:45;16.60;1.00
7014;DHT22;3547;50.774;12.918;2023-09-19T06:45:12;16.50;1.00
7014;DHT22;3547;50.774;12.918;2023-09-19T06:47:46;16.50;1.00
7014;DHT22;3547;50.774;12.918;2023-09-19T06:50:20;16.60;1.00
7014;DHT22;3547;50.774;12.918;2023-09-19T06:52:49;16.70;1.00
7014;DHT22;3547;50.774;12.918;2023-09-19T06:55:17;16.80;1.00
7014;DHT22;3547;50.774;12.918;2023-09-19T06:57:43;16.80;1.00
7014;DHT22;3547;50.774;12.918;2023-09-19T07:00:11;16.90;1.00
7014;DHT22;3547;50.774;12.918;2023-09-19T07:02:58;16.90;1.00
7014;DHT22;3547;50.774;12.918;2023-09-19T07:05:30;16.90;1.00
7014;DHT22;3547;50.774;12.918;2023-09-19T07:07:57;17.00;1.00
7014;DHT22;3547;50.774;12.918;2023-09-19T07:10:25;17.10;1.00
7014;DHT22;3547;50.774;12.918;2023-09-19T07:12:56;17.10;1.00
7014;DHT22;3547;50.774;12.918;2023-09-19T07:15:27;17.10;1.00
7014;DHT22;3547;50.774;12.918;2023-09-19T07:17:54;17.00;1.00
7014;DHT22;3547;50.774;12.918;2023-09-19T07:20:23;17.10;1.00
7014;DHT22;3547;50.774;12.918;2023-09-19T07:22:52;17.30;1.00
7014;DHT22;3547;50.774;12.918;2023-09-19T07:25:21;17.30;1.00
7014;DHT22;3547;50.774;12.918;2023-09-19T07:27:47;17.40;1.00
7014;DHT22;3547;50.774;12.918;2023-09-19T07:30:13;17.50;1.00
7014;DHT22;3547;50.774;12.918;2023-09-19T07:32:42;17.40;1.00
7014;DHT22;3547;50.774;12.918;2023-09-19T07:35:08;17.50;1.00
7014;DHT22;3547;50.774;12.918;2023-09-19T07:37:35;17.40;1.00
7014;DHT22;3547;50.774;12.918;2023-09-19T07:40:06;17.30;1.00
7014;DHT22;3547;50.774;12.918;2023-09-19T07:42:36;17.40;1.00
7014;DHT22;3547;50.774;12.918;2023-09-19T07:45:10;17.50;1.00
7014;DHT22;3547;50.774;12.918;2023-09-19T07:47:50;17.50;1.00
7014;DHT22;3547;50.774;12.918;2023-09-19T07:50:18;17.60;1.00
7014;DHT22;3547;50.774;12.918;2023-09-19T07:52:45;17.60;1.00
7014;DHT22;3547;50.774;12.918;2023-09-19T07:55:11;17.70;1.00
7014;DHT22;3547;50.774;12.918;2023-09-19T07:57:43;17.80;1.00
7014;DHT22;3547;50.774;12.918;2023-09-19T08:00:10;17.90;1.00
7014;DHT22;3547;50.774;12.918;2023-09-19T08:02:37;18.00;1.00
7014;DHT22;3547;50.774;12.918;2023-09-19T08:05:07;18.20;1.00
7014;DHT22;3547;50.774;12.918;2023-09-19T08:07:37;18.30;1.00
7014;DHT22;3547;50.774;12.918;2023-09-19T08:10:04;18.50;1.00
7014;DHT22;3547;50.774;12.918;2023-09-19T08:12:34;18.40;1.00
7014;DHT22;3547;50.774;12.918;2023-09-19T08:15:04;18.30;1.00
7014;DHT22;3547;50.774;12.918;2023-09-19T08:17:35;18.30;1.00
7014;DHT22;3547;50.774;12.918;2023-09-19T08:20:01;18.50;1.00
7014;DHT22;3547;50.774;12.918;2023-09-19T08:22:31;18.50;1.00
7014;DHT22;3547;50.774;12.918;2023-09-19T08:25:00;18.60;1.00
7014;DHT22;3547;50.774;12.918;2023-09-19T08:27:30;18.50;1.00
7014;DHT22;3547;50.774;12.918;2023-09-19T08:29:56;18.10;1.00
7014;DHT22;3547;50.774;12.918;2023-09-19T08:32:23;18.20;1.00
7014;DHT22;3547;50.774;12.918;2023-09-19T08:34:51;18.20;1.00
7014;DHT22;3547;50.774;12.918;2023-09-19T08:37:17;18.20;1.00
7014;DHT22;3547;50.774;12.918;2023-09-19T08:39:44;18.10;1.00
7014;DHT22;3547;50.774;12.918;2023-09-19T08:42:11;18.10;1.00
7014;DHT22;3547;50.774;12.918;2023-09-19T08:44:38;18.20;1.00
7014;DHT22;3547;50.774;12.918;2023-09-19T08:47:11;18.30;1.00
7014;DHT22;3547;50.774;12.918;2023-09-19T08:50:03;18.40;1.00
7014;DHT22;3547;50.774;12.918;2023-09-19T08:52:43;18.50;1.00
7014;DHT22;3547;50.774;12.918;2023-09-19T08:55:14;18.40;1.00
7014;DHT22;3547;50.774;12.918;2023-09-19T08:57:49;18.50;1.00
7014;DHT22;3547;50.774;12.918;2023-09-19T09:00:16;18.30;1.00
7014;DHT22;3547;50.774;12.918;2023-09-19T09:02:47;18.40;1.00
7014;DHT22;3547;50.774;12.918;2023-09-19T09:05:14;18.30;1.00
7014;DHT22;3547;50.774;12.918;2023-09-19T09:07:42;18.40;1.00
7014;DHT22;3547;50.774;12.918;2023-09-19T09:10:10;18.50;1.00
7014;DHT22;3547;50.774;12.918;2023-09-19T09:12:36;18.30;1.00
7014;DHT22;3547;50.774;12.918;2023-09-19T09:15:03;18.30;1.00
7014;DHT22;3547;50.774;12.918;2023-09-19T09:17:30;18.20;1.00
7014;DHT22;3547;50.774;12.918;2023-09-19T09:19:56;18.10;1.00
7014;DHT22;3547;50.774;12.918;2023-09-19T09:22:22;18.00;1.00
7014;DHT22;3547;50.774;12.918;2023-09-19T09:24:57;18.00;1.00
7014;DHT22;3547;50.774;12.918;2023-09-19T09:27:31;18.10;1.00
7014;DHT22;3547;50.774;12.918;2023-09-19T09:29:58;18.20;1.00
7014;DHT22;3547;50.774;12.918;2023-09-19T09:32:29;18.30;1.00
7014;DHT22;3547;50.774;12.918;2023-09-19T09:35:01;18.40;1.00
7014;DHT22;3547;50.774;12.918;2023-09-19T09:37:28;18.40;1.00
7014;DHT22;3547;50.774;12.918;2023-09-19T09:39:57;18.60;1.00
7014;DHT22;3547;50.774;12.918;2023-09-19T09:42:34;18.70;1.00
7014;DHT22;3547;50.774;12.918;2023-09-19T09:45:20;18.70;1.00
7014;DHT22;3547;50.774;12.918;2023-09-19T09:52:04;18.80;1.00
7014;DHT22;3547;50.774;12.918;2023-09-19T09:54:35;18.70;1.00
7014;DHT22;3547;50.774;12.918;2023-09-19T09:57:08;18.80;1.00
7014;DHT22;3547;50.774;12.918;2023-09-19T10:02:14;18.80;1.00
7014;DHT22;3547;50.774;12.918;2023-09-19T10:04:46;18.90;1.00
7014;DHT22;3547;50.774;12.918;2023-09-19T10:07:31;18.90;1.00
7014;DHT22;3547;50.774;12.918;2023-09-19T10:10:34;19.00;1.00
7014;DHT22;3547;50.774;12.918;2023-09-19T10:13:20;19.00;1.00
7014;DHT22;3547;50.774;12.918;2023-09-19T10:15:51;19.10;1.00
7014;DHT22;3547;50.774;12.918;2023-09-19T10:18:26;19.10;1.00
7014;DHT22;3547;50.774;12.918;2023-09-19T10:20:54;19.00;1.00
7014;DHT22;3547;50.774;12.918;2023-09-19T10:23:21;19.20;1.00
7014;DHT22;3547;50.774;12.918;2023-09-19T10:25:50;19.30;1.00
7014;DHT22;3547;50.774;12.918;2023-09-19T10:28:17;19.30;1.00
7014;DHT22;3547;50.774;12.918;2023-09-19T10:30:48;19.40;1.00
7014;DHT22;3547;50.774;12.918;2023-09-19T10:33:17;19.60;1.00
7014;DHT22;3547;50.774;12.918;2023-09-19T10:35:48;19.70;1.00
7014;DHT22;3547;50.774;12.918;2023-09-19T10:38:17;19.70;1.00
7014;DHT22;3547;50.774;12.918;2023-09-19T10:40:55;19.90;1.00
7014;DHT22;3547;50.774;12.918;2023-09-19T10:43:26;20.10;1.00
7014;DHT22;3547;50.774;12.918;2023-09-19T10:46:00;20.20;1.00
7014;DHT22;3547;50.774;12.918;2023-09-19T10:48:26;20.20;1.00
7014;DHT22;3547;50.774;12.918;2023-09-19T10:51:02;20.20;1.00
7014;DHT22;3547;50.774;12.918;2023-09-19T10:53:48;20.20;1.00
7014;DHT22;3547;50.774;12.918;2023-09-19T10:56:21;20.10;1.00
7014;DHT22;3547;50.774;12.918;2023-09-19T11:02:17;20.30;1.00
7014;DHT22;3547;50.774;12.918;2023-09-19T11:04:43;20.50;1.00
7014;DHT22;3547;50.774;12.918;2023-09-19T11:07:12;20.60;1.00
7014;DHT22;3547;50.774;12.918;2023-09-19T11:09:56;20.60;1.00
7014;DHT22;3547;50.774;12.918;2023-09-19T11:14:57;20.90;1.00
7014;DHT22;3547;50.774;12.918;2023-09-19T11:17:38;21.00;1.00
7014;DHT22;3547;50.774;12.918;2023-09-19T11:30:40;21.00;1.00
7014;DHT22;3547;50.774;12.918;2023-09-19T11:33:24;21.10;1.00
7014;DHT22;3547;50.774;12.918;2023-09-19T11:36:05;21.10;1.00
7014;DHT22;3547;50.774;12.918;2023-09-19T11:46:31;21.10;1.00
7014;DHT22;3547;50.774;12.918;2023-09-19T11:49:08;20.90;1.00
7014;DHT22;3547;50.774;12.918;2023-09-19T11:51:52;21.00;1.00
7014;DHT22;3547;50.774;12.918;2023-09-19T11:54:19;21.20;1.00
7014;DHT22;3547;50.774;12.918;2023-09-19T11:56:49;21.10;1.00
7014;DHT22;3547;50.774;12.918;2023-09-19T11:59:24;20.90;1.00
7014;DHT22;3547;50.774;12.918;2023-09-19T12:01:52;20.70;1.00
7014;DHT22;3547;50.774;12.918;2023-09-19T12:04:41;20.70;1.00
7014;DHT22;3547;50.774;12.918;2023-09-19T12:07:14;20.70;1.00
7014;DHT22;3547;50.774;12.918;2023-09-19T12:09:45;20.50;1.00
7014;DHT22;3547;50.774;12.918;2023-09-19T12:12:25;20.60;1.00
7014;DHT22;3547;50.774;12.918;2023-09-19T12:14:55;20.60;1.00
7014;DHT22;3547;50.774;12.918;2023-09-19T12:17:40;20.60;1.00
7014;DHT22;3547;50.774;12.918;2023-09-19T12:20:10;20.70;1.00
7014;DHT22;3547;50.774;12.918;2023-09-19T12:22:44;20.80;1.00
7014;DHT22;3547;50.774;12.918;2023-09-19T12:25:11;20.90;1.00
7014;DHT22;3547;50.774;12.918;2023-09-19T12:27:49;21.00;1.00
7014;DHT22;3547;50.774;12.918;2023-09-19T12:30:19;20.90;1.00
7014;DHT22;3547;50.774;12.918;2023-09-19T12:32:46;20.60;1.00
7014;DHT22;3547;50.774;12.918;2023-09-19T12:35:31;20.60;1.00
7014;DHT22;3547;50.774;12.918;2023-09-19T12:38:01;20.40;1.00
7014;DHT22;3547;50.774;12.918;2023-09-19T12:40:30;20.50;1.00
7014;DHT22;3547;50.774;12.918;2023-09-19T12:42:59;20.70;1.00
7014;DHT22;3547;50.774;12.918;2023-09-19T12:45:26;20.70;1.00
7014;DHT22;3547;50.774;12.918;2023-09-19T12:48:24;20.40;1.00
7014;DHT22;3547;50.774;12.918;2023-09-19T12:51:10;20.50;1.00
7014;DHT22;3547;50.774;12.918;2023-09-19T12:53:40;20.70;1.00
7014;DHT22;3547;50.774;12.918;2023-09-19T12:56:10;20.60;1.00
7014;DHT22;3547;50.774;12.918;2023-09-19T12:58:52;20.60;1.00
7014;DHT22;3547;50.774;12.918;2023-09-19T13:01:25;20.70;1.00
7014;DHT22;3547;50.774;12.918;2023-09-19T13:04:15;20.80;1.00
7014;DHT22;3547;50.774;12.918;2023-09-19T13:06:49;20.90;1.00
7014;DHT22;3547;50.774;12.918;2023-09-19T13:09:17;20.90;1.00
7014;DHT22;3547;50.774;12.918;2023-09-19T13:11:44;21.00;1.00
7014;DHT22;3547;50.774;12.918;2023-09-19T13:19:44;21.10;1.00
7014;DHT22;3547;50.774;12.918;2023-09-19T13:22:42;21.20;1.00
7014;DHT22;3547;50.774;12.918;2023-09-19T13:25:18;21.30;1.00
7014;DHT22;3547;50.774;12.918;2023-09-19T13:28:07;21.40;1.00
7014;DHT22;3547;50.774;12.918;2023-09-19T13:30:37;21.20;1.00
7014;DHT22;3547;50.774;12.918;2023-09-19T13:33:11;21.20;1.00
7014;DHT22;3547;50.774;12.918;2023-09-19T13:35:40;21.30;1.00
7014;DHT22;3547;50.774;12.918;2023-09-19T13:38:07;21.20;1.00
7014;DHT22;3547;50.774;12.918;2023-09-19T13:40:38;21.40;1.00
7014;DHT22;3547;50.774;12.918;2023-09-19T13:43:05;21.50;1.00
7014;DHT22;3547;50.774;12.918;2023-09-19T13:45:32;21.60;1.00
7014;DHT22;3547;50.774;12.918;2023-09-19T13:47:58;21.80;1.00
7014;DHT22;3547;50.774;12.918;2023-09-19T13:50:25;21.80;1.00
7014;DHT22;3547;50.774;12.918;2023-09-19T13:52:52;21.60;1.00
7014;DHT22;3547;50.774;12.918;2023-09-19T13:55:20;21.40;1.00
7014;DHT22;3547;50.774;12.918;2023-09-19T13:57:58;21.10;1.00
7014;DHT22;3547;50.774;12.918;2023-09-19T14:00:25;21.10;1.00
7014;DHT22;3547;50.774;12.918;2023-09-19T14:06:13;21.40;1.00
7014;DHT22;3547;50.774;12.918;2023-09-19T14:08:39;21.30;1.00
7014;DHT22;3547;50.774;12.918;2023-09-19T14:11:07;21.30;1.00
7014;DHT22;3547;50.774;12.918;2023-09-19T14:13:36;21.60;1.00
7014;DHT22;3547;50.774;12.918;2023-09-19T14:16:06;21.40;1.00
7014;DHT22;3547;50.774;12.918;2023-09-19T14:18:35;21.50;1.00
7014;DHT22;3547;50.774;12.918;2023-09-19T14:21:05;21.20;1.00
7014;DHT22;3547;50.774;12.918;2023-09-19T14:23:41;21.10;1.00
7014;DHT22;3547;50.774;12.918;2023-09-19T14:26:09;21.10;1.00
7014;DHT22;3547;50.774;12.918;2023-09-19T14:28:35;21.20;1.00
7014;DHT22;3547;50.774;12.918;2023-09-19T14:31:09;21.10;1.00
7014;DHT22;3547;50.774;12.918;2023-09-19T14:33:35;21.10;1.00
7014;DHT22;3547;50.774;12.918;2023-09-19T14:36:06;21.10;1.00
7014;DHT22;3547;50.774;12.918;2023-09-19T14:38:35;21.20;1.00
7014;DHT22;3547;50.774;12.918;2023-09-19T14:41:06;21.30;1.00
7014;DHT22;3547;50.774;12.918;2023-09-19T14:43:34;21.10;1.00
7014;DHT22;3547;50.774;12.918;2023-09-19T14:46:24;21.00;1.00
7014;DHT22;3547;50.774;12.918;2023-09-19T14:48:53;20.90;1.00
7014;DHT22;3547;50.774;12.918;2023-09-19T14:51:20;20.90;1.00
7014;DHT22;3547;50.774;12.918;2023-09-19T14:53:46;20.70;1.00
7014;DHT22;3547;50.774;12.918;2023-09-19T14:56:15;20.80;1.00
7014;DHT22;3547;50.774;12.918;2023-09-19T14:58:44;20.80;1.00
7014;DHT22;3547;50.774;12.918;2023-09-19T15:01:12;20.90;1.00
7014;DHT22;3547;50.774;12.918;2023-09-19T15:03:40;21.00;1.00
7014;DHT22;3547;50.774;12.918;2023-09-19T15:06:09;20.90;1.00
7014;DHT22;3547;50.774;12.918;2023-09-19T15:08:37;21.20;1.00
7014;DHT22;3547;50.774;12.918;2023-09-19T15:11:09;21.40;1.00
7014;DHT22;3547;50.774;12.918;2023-09-19T15:13:36;21.40;1.00
7014;DHT22;3547;50.774;12.918;2023-09-19T15:16:05;22.10;1.00
7014;DHT22;3547;50.774;12.918;2023-09-19T15:18:41;22.80;1.00
7014;DHT22;3547;50.774;12.918;2023-09-19T15:21:10;23.50;1.00
7014;DHT22;3547;50.774;12.918;2023-09-19T15:23:38;23.60;1.00
7014;DHT22;3547;50.774;12.918;2023-09-19T15:26:06;23.80;1.00
7014;DHT22;3547;50.774;12.918;2023-09-19T15:28:32;23.30;1.00
7014;DHT22;3547;50.774;12.918;2023-09-19T15:31:07;22.80;1.00
7014;DHT22;3547;50.774;12.918;2023-09-19T15:33:34;22.50;1.00
7014;DHT22;3547;50.774;12.918;2023-09-19T15:36:11;22.20;1.00
7014;DHT22;3547;50.774;12.918;2023-09-19T15:38:57;21.90;1.00
7014;DHT22;3547;50.774;12.918;2023-09-19T15:41:25;21.50;1.00
7014;DHT22;3547;50.774;12.918;2023-09-19T15:43:53;21.30;1.00
7014;DHT22;3547;50.774;12.918;2023-09-19T15:46:20;21.10;1.00
7014;DHT22;3547;50.774;12.918;2023-09-19T15:48:46;20.80;1.00
7014;DHT22;3547;50.774;12.918;2023-09-19T15:51:13;20.70;1.00
7014;DHT22;3547;50.774;12.918;2023-09-19T15:53:43;20.60;1.00
7014;DHT22;3547;50.774;12.918;2023-09-19T15:56:11;20.60;1.00
7014;DHT22;3547;50.774;12.918;2023-09-19T15:58:39;20.40;1.00
7014;DHT22;3547;50.774;12.918;2023-09-19T16:01:06;20.30;1.00
7014;DHT22;3547;50.774;12.918;2023-09-19T16:03:45;20.30;1.00
7014;DHT22;3547;50.774;12.918;2023-09-19T16:06:19;20.60;1.00
7014;DHT22;3547;50.774;12.918;2023-09-19T16:08:49;21.00;1.00
7014;DHT22;3547;50.774;12.918;2023-09-19T16:11:16;21.10;1.00
7014;DHT22;3547;50.774;12.918;2023-09-19T16:13:44;21.00;1.00
7014;DHT22;3547;50.774;12.918;2023-09-19T16:16:14;20.80;1.00
7014;DHT22;3547;50.774;12.918;2023-09-19T16:19:01;20.60;1.00
7014;DHT22;3547;50.774;12.918;2023-09-19T16:21:30;20.40;1.00
7014;DHT22;3547;50.774;12.918;2023-09-19T16:23:58;20.20;1.00
7014;DHT22;3547;50.774;12.918;2023-09-19T16:26:26;20.30;1.00
7014;DHT22;3547;50.774;12.918;2023-09-19T16:28:55;20.30;1.00
7014;DHT22;3547;50.774;12.918;2023-09-19T16:31:27;19.90;1.00
7014;DHT22;3547;50.774;12.918;2023-09-19T16:33:54;19.70;1.00
7014;DHT22;3547;50.774;12.918;2023-09-19T16:36:25;19.40;1.00
7014;DHT22;3547;50.774;12.918;2023-09-19T16:38:51;19.20;1.00
7014;DHT22;3547;50.774;12.918;2023-09-19T16:41:18;19.10;1.00
7014;DHT22;3547;50.774;12.918;2023-09-19T16:43:45;18.90;1.00
7014;DHT22;3547;50.774;12.918;2023-09-19T16:46:12;18.80;1.00
7014;DHT22;3547;50.774;12.918;2023-09-19T16:48:39;18.70;1.00
7014;DHT22;3547;50.774;12.918;2023-09-19T16:51:14;18.50;1.00
7014;DHT22;3547;50.774;12.918;2023-09-19T16:53:41;18.40;1.00
7014;DHT22;3547;50.774;12.918;2023-09-19T16:56:09;18.40;1.00
7014;DHT22;3547;50.774;12.918;2023-09-19T16:58:43;18.30;1.00
7014;DHT22;3547;50.774;12.918;2023-09-19T17:01:13;18.30;1.00
7014;DHT22;3547;50.774;12.918;2023-09-19T17:03:40;18.20;1.00
7014;DHT22;3547;50.774;12.918;2023-09-19T17:06:08;18.20;1.00
7014;DHT22;3547;50.774;12.918;2023-09-19T17:08:37;18.10;1.00
7014;DHT22;3547;50.774;12.918;2023-09-19T17:11:09;18.10;1.00
7014;DHT22;3547;50.774;12.918;2023-09-19T17:13:45;17.90;1.00
7014;DHT22;3547;50.774;12.918;2023-09-19T17:16:14;17.90;1.00
7014;DHT22;3547;50.774;12.918;2023-09-19T17:18:42;17.80;1.00
7014;DHT22;3547;50.774;12.918;2023-09-19T17:21:10;17.60;1.00